Time,TemperatureF,DewpointF,PressureIn,WindDirection,WindDirectionDegrees,WindSpeedMPH,WindSpeedGustMPH,Humidity,HourlyPrecipIn,Conditions,Clouds,dailyrainin,SoftwareType,DateUTC
2013-01-21 00:03:00,10.4,6.8,30.48,NNE,24,4.0,0.0,85,0.00,,,0.00,meteohub,2013-01-21 06:03:00,
2013-01-21 00:08:00,10.0,6.6,30.48,NNE,24,5.0,5.0,86,0.00,,,0.00,meteohub,2013-01-21 06:08:00,
2013-01-21 00:13:00,9.9,6.4,30.48,NNE,24,4.0,5.0,86,0.00,,,0.00,meteohub,2013-01-21 06:13:00,
2013-01-21 00:19:00,10.0,7.0,30.47,NNE,29,2.0,5.0,87,0.00,,,0.00,meteohub,2013-01-21 06:19:00,
2013-01-21 00:24:00,10.0,7.0,30.48,NNE,29,3.0,5.0,87,0.00,,,0.00,meteohub,2013-01-21 06:24:00,
2013-01-21 00:29:00,10.2,7.2,30.48,NNE,25,5.0,5.0,87,0.00,,,0.00,meteohub,2013-01-21 06:29:00,
2013-01-21 00:34:00,10.8,7.9,30.48,NNE,28,5.0,5.0,88,0.00,,,0.00,meteohub,2013-01-21 06:34:00,
2013-01-21 00:40:00,11.1,8.2,30.47,NNE,28,5.0,6.0,88,0.00,,,0.00,meteohub,2013-01-21 06:40:00,
2013-01-21 00:45:00,11.7,8.8,30.47,NE,36,5.0,6.0,88,0.00,,,0.00,meteohub,2013-01-21 06:45:00,
2013-01-21 00:50:00,12.4,9.7,30.47,NNE,26,5.0,6.0,89,0.00,,,0.00,meteohub,2013-01-21 06:50:00,
2013-01-21 00:55:00,13.5,10.8,30.48,NNE,21,6.0,6.0,89,0.00,,,0.00,meteohub,2013-01-21 06:55:00,
2013-01-21 01:00:00,13.8,10.9,30.48,NNE,16,7.0,8.0,88,0.00,,,0.00,meteohub,2013-01-21 07:00:00,
2013-01-21 01:05:00,14.2,10.9,30.48,NNE,24,7.0,9.0,87,0.00,,,0.00,meteohub,2013-01-21 07:05:00,
2013-01-21 01:10:00,14.2,10.9,30.48,North,11,6.0,9.0,87,0.00,,,0.00,meteohub,2013-01-21 07:10:00,
2013-01-21 01:15:00,14.4,11.1,30.48,NNE,14,6.0,9.0,87,0.00,,,0.00,meteohub,2013-01-21 07:15:00,
2013-01-21 01:21:00,14.7,11.3,30.48,North,355,5.0,10.0,86,0.00,,,0.00,meteohub,2013-01-21 07:21:00,
2013-01-21 01:26:00,14.7,11.1,30.48,North,355,8.0,10.0,85,0.00,,,0.00,meteohub,2013-01-21 07:26:00,
2013-01-21 01:31:00,14.7,10.8,30.47,North,11,7.0,10.0,84,0.00,,,0.00,meteohub,2013-01-21 07:31:00,
2013-01-21 01:37:00,14.7,10.8,30.47,North,0,9.0,10.0,84,0.00,,,0.00,meteohub,2013-01-21 07:37:00,
2013-01-21 01:42:00,14.7,10.8,30.47,North,355,7.0,10.0,84,0.00,,,0.00,meteohub,2013-01-21 07:42:00,
2013-01-21 01:47:00,14.5,10.6,30.47,NNW,331,6.0,10.0,84,0.00,,,0.00,meteohub,2013-01-21 07:47:00,
2013-01-21 01:52:00,14.7,10.8,30.47,North,349,7.0,10.0,84,0.00,,,0.00,meteohub,2013-01-21 07:52:00,
2013-01-21 01:57:00,14.7,10.8,30.48,North,355,8.0,10.0,84,0.00,,,0.00,meteohub,2013-01-21 07:57:00,
2013-01-21 02:03:00,14.7,10.8,30.48,North,351,8.0,9.0,84,0.00,,,0.00,meteohub,2013-01-21 08:03:00,
2013-01-21 02:08:00,14.7,10.8,30.47,NNW,348,6.0,9.0,84,0.00,,,0.00,meteohub,2013-01-21 08:08:00,
2013-01-21 02:14:00,14.5,10.6,30.48,NNW,338,7.0,9.0,84,0.00,,,0.00,meteohub,2013-01-21 08:14:00,
2013-01-21 02:19:00,14.7,11.1,30.48,NNW,329,7.0,10.0,85,0.00,,,0.00,meteohub,2013-01-21 08:19:00,
2013-01-21 02:24:00,15.1,11.5,30.48,NNW,344,11.0,11.0,85,0.00,,,0.00,meteohub,2013-01-21 08:24:00,
2013-01-21 02:29:00,15.3,11.3,30.48,NNW,343,13.0,13.0,84,0.00,,,0.00,meteohub,2013-01-21 08:29:00,
2013-01-21 02:35:00,15.3,11.3,30.48,NNW,346,12.0,15.0,84,0.00,,,0.00,meteohub,2013-01-21 08:35:00,
2013-01-21 02:40:00,15.3,11.3,30.48,North,355,11.0,15.0,84,0.00,,,0.00,meteohub,2013-01-21 08:40:00,
2013-01-21 02:45:00,15.3,11.1,30.48,NNW,338,8.0,15.0,83,0.00,,,0.00,meteohub,2013-01-21 08:45:00,
2013-01-21 02:50:00,15.3,11.1,30.48,North,355,14.0,17.0,83,0.00,,,0.00,meteohub,2013-01-21 08:50:00,
2013-01-21 02:55:00,15.1,10.9,30.48,North,350,11.0,17.0,83,0.00,,,0.00,meteohub,2013-01-21 08:55:00,
2013-01-21 03:01:00,15.1,10.9,30.48,NNW,342,13.0,17.0,83,0.00,,,0.00,meteohub,2013-01-21 09:01:00,
2013-01-21 03:06:00,15.3,11.3,30.48,North,355,14.0,15.0,84,0.00,,,0.00,meteohub,2013-01-21 09:06:00,
2013-01-21 03:11:00,15.3,11.1,30.48,NNW,340,11.0,17.0,83,0.00,,,0.00,meteohub,2013-01-21 09:11:00,
2013-01-21 03:16:00,15.3,10.8,30.48,NNW,339,15.0,18.0,82,0.00,,,0.00,meteohub,2013-01-21 09:16:00,
2013-01-21 03:21:00,15.1,10.2,30.48,North,349,16.0,19.0,81,0.00,,,0.00,meteohub,2013-01-21 09:21:00,
2013-01-21 03:26:00,15.1,10.0,30.48,NNW,336,16.0,20.0,80,0.00,,,0.00,meteohub,2013-01-21 09:26:00,
2013-01-21 03:32:00,14.7,9.7,30.48,NNW,346,14.0,20.0,80,0.00,,,0.00,meteohub,2013-01-21 09:32:00,
2013-01-21 03:37:00,14.7,9.7,30.48,NNW,344,18.0,21.0,80,0.00,,,0.00,meteohub,2013-01-21 09:37:00,
2013-01-21 03:42:00,14.5,9.5,30.48,NNW,340,21.0,21.0,80,0.00,,,0.00,meteohub,2013-01-21 09:42:00,
2013-01-21 03:47:00,14.5,9.5,30.48,North,355,17.0,23.0,80,0.00,,,0.00,meteohub,2013-01-21 09:47:00,
2013-01-21 03:53:00,14.4,9.3,30.48,North,5,14.0,23.0,80,0.00,,,0.00,meteohub,2013-01-21 09:53:00,
2013-01-21 03:58:00,14.2,9.1,30.48,North,10,20.0,23.0,80,0.00,,,0.00,meteohub,2013-01-21 09:58:00,
2013-01-21 04:03:00,13.6,8.4,30.48,North,0,18.0,21.0,79,0.00,,,0.00,meteohub,2013-01-21 10:03:00,
2013-01-21 04:08:00,13.3,7.7,30.48,NNW,345,17.0,23.0,78,0.00,,,0.00,meteohub,2013-01-21 10:08:00,
2013-01-21 04:13:00,12.7,6.6,30.48,NNW,344,13.0,23.0,76,0.00,,,0.00,meteohub,2013-01-21 10:13:00,
2013-01-21 04:18:00,12.7,6.6,30.48,North,9,13.0,24.0,76,0.00,,,0.00,meteohub,2013-01-21 10:18:00,
2013-01-21 04:24:00,12.7,6.3,30.48,NNW,331,19.0,24.0,75,0.00,,,0.00,meteohub,2013-01-21 10:24:00,
2013-01-21 04:29:00,12.6,5.9,30.48,NNW,340,19.0,23.0,74,0.00,,,0.00,meteohub,2013-01-21 10:29:00,
2013-01-21 04:35:00,12.6,5.5,30.48,NNW,348,16.0,24.0,73,0.00,,,0.00,meteohub,2013-01-21 10:35:00,
2013-01-21 04:40:00,12.6,5.9,30.48,North,355,16.0,24.0,74,0.00,,,0.00,meteohub,2013-01-21 10:40:00,
2013-01-21 04:45:00,12.6,5.9,30.48,NNW,346,15.0,24.0,74,0.00,,,0.00,meteohub,2013-01-21 10:45:00,
2013-01-21 04:50:00,12.4,5.7,30.48,NNW,346,14.0,22.0,74,0.00,,,0.00,meteohub,2013-01-21 10:50:00,
2013-01-21 04:55:00,12.4,5.7,30.48,North,350,15.0,21.0,74,0.00,,,0.00,meteohub,2013-01-21 10:55:00,
2013-01-21 05:01:00,12.2,4.8,30.48,NNW,336,16.0,23.0,72,0.00,,,0.00,meteohub,2013-01-21 11:01:00,
2013-01-21 05:06:00,12.2,4.8,30.48,NW,312,17.0,23.0,72,0.00,,,0.00,meteohub,2013-01-21 11:06:00,
2013-01-21 05:11:00,12.2,4.8,30.48,NNW,348,14.0,23.0,72,0.00,,,0.00,meteohub,2013-01-21 11:11:00,
2013-01-21 05:17:00,12.0,4.5,30.48,NW,325,18.0,22.0,71,0.00,,,0.00,meteohub,2013-01-21 11:17:00,
2013-01-21 05:22:00,12.0,4.1,30.48,NW,324,20.0,23.0,70,0.00,,,0.00,meteohub,2013-01-21 11:22:00,
2013-01-21 05:28:00,12.0,3.7,30.48,NW,321,12.0,24.0,69,0.00,,,0.00,meteohub,2013-01-21 11:28:00,
2013-01-21 05:33:00,12.0,3.2,30.48,NW,313,19.0,25.0,67,0.00,,,0.00,meteohub,2013-01-21 11:33:00,
2013-01-21 05:38:00,12.0,2.8,30.48,NW,311,21.0,26.0,66,0.00,,,0.00,meteohub,2013-01-21 11:38:00,
2013-01-21 05:44:00,12.0,2.8,30.48,NW,314,19.0,27.0,66,0.00,,,0.00,meteohub,2013-01-21 11:44:00,
2013-01-21 05:49:00,12.0,2.8,30.48,NW,324,14.0,27.0,66,0.00,,,0.00,meteohub,2013-01-21 11:49:00,
2013-01-21 05:54:00,12.0,1.8,30.48,NW,312,19.0,27.0,63,0.00,,,0.00,meteohub,2013-01-21 11:54:00,
2013-01-21 05:59:00,11.8,1.4,30.48,WNW,299,18.0,26.0,62,0.00,,,0.00,meteohub,2013-01-21 11:59:00,
2013-01-21 06:04:00,11.8,1.8,30.48,NW,307,13.0,26.0,63,0.00,,,0.00,meteohub,2013-01-21 12:04:00,
2013-01-21 06:09:00,11.7,1.6,30.48,NNW,332,21.0,26.0,63,0.00,,,0.00,meteohub,2013-01-21 12:09:00,
2013-01-21 06:14:00,11.5,1.0,30.48,NNW,340,18.0,25.0,62,0.00,,,0.00,meteohub,2013-01-21 12:14:00,
2013-01-21 06:19:00,11.5,1.0,30.48,NNW,342,18.0,23.0,62,0.00,,,0.00,meteohub,2013-01-21 12:19:00,
2013-01-21 06:24:00,11.3,0.5,30.49,NNW,336,16.0,23.0,61,0.00,,,0.00,meteohub,2013-01-21 12:24:00,
2013-01-21 06:29:00,11.3,0.9,30.49,NNW,338,18.0,23.0,62,0.00,,,0.00,meteohub,2013-01-21 12:29:00,
2013-01-21 06:34:00,11.3,0.5,30.49,NNW,332,16.0,22.0,61,0.00,,,0.00,meteohub,2013-01-21 12:34:00,
2013-01-21 06:40:00,11.3,0.9,30.49,NNW,341,16.0,22.0,62,0.00,,,0.00,meteohub,2013-01-21 12:40:00,
2013-01-21 06:45:00,10.9,0.1,30.49,NNW,345,17.0,24.0,61,0.00,,,0.00,meteohub,2013-01-21 12:45:00,
2013-01-21 06:50:00,10.6,-0.2,30.49,NNW,329,16.0,24.0,61,0.00,,,0.00,meteohub,2013-01-21 12:50:00,
2013-01-21 06:55:00,10.6,0.1,30.49,NNW,329,14.0,24.0,62,0.00,,,0.00,meteohub,2013-01-21 12:55:00,
2013-01-21 07:00:00,10.2,-0.6,30.50,NNW,343,18.0,22.0,61,0.00,,,0.00,meteohub,2013-01-21 13:00:00,
2013-01-21 07:05:00,9.9,-1.3,30.50,NNW,345,15.0,22.0,60,0.00,,,0.00,meteohub,2013-01-21 13:05:00,
2013-01-21 07:10:00,9.9,-1.3,30.50,NNW,327,14.0,22.0,60,0.00,,,0.00,meteohub,2013-01-21 13:10:00,
2013-01-21 07:15:00,9.9,-0.6,30.50,North,355,14.0,22.0,62,0.00,,,0.00,meteohub,2013-01-21 13:15:00,
2013-01-21 07:20:00,9.9,-0.6,30.51,NNW,330,11.0,22.0,62,0.00,,,0.00,meteohub,2013-01-21 13:20:00,
2013-01-21 07:26:00,9.9,-0.6,30.50,NNW,336,15.0,19.0,62,0.00,,,0.00,meteohub,2013-01-21 13:26:00,
2013-01-21 07:31:00,9.9,-0.6,30.50,North,5,11.0,18.0,62,0.00,,,0.00,meteohub,2013-01-21 13:31:00,
2013-01-21 07:36:00,9.7,-0.8,30.50,NNW,344,12.0,17.0,62,0.00,,,0.00,meteohub,2013-01-21 13:36:00,
2013-01-21 07:41:00,9.7,-1.5,30.50,North,350,12.0,17.0,60,0.00,,,0.00,meteohub,2013-01-21 13:41:00,
2013-01-21 07:46:00,9.3,-1.8,30.50,North,355,16.0,17.0,60,0.00,,,0.00,meteohub,2013-01-21 13:46:00,
2013-01-21 07:51:00,9.3,-2.0,30.50,NNE,12,15.0,18.0,59,0.00,,,0.00,meteohub,2013-01-21 13:51:00,
2013-01-21 07:56:00,9.1,-2.2,30.49,NNW,348,14.0,19.0,59,0.00,,,0.00,meteohub,2013-01-21 13:56:00,
2013-01-21 08:01:00,9.1,-2.6,30.50,North,5,14.0,19.0,58,0.00,,,0.00,meteohub,2013-01-21 14:01:00,
2013-01-21 08:06:00,9.0,-3.1,30.50,North,0,15.0,17.0,57,0.00,,,0.00,meteohub,2013-01-21 14:06:00,
2013-01-21 08:11:00,8.8,-3.3,30.50,NNE,13,14.0,19.0,57,0.00,,,0.00,meteohub,2013-01-21 14:11:00,
2013-01-21 08:16:00,8.8,-3.6,30.50,North,355,12.0,19.0,56,0.00,,,0.00,meteohub,2013-01-21 14:16:00,
2013-01-21 08:22:00,8.6,-3.8,30.50,North,355,13.0,19.0,56,0.00,,,0.00,meteohub,2013-01-21 14:22:00,
2013-01-21 08:27:00,8.6,-3.8,30.50,North,355,10.0,18.0,56,0.00,,,0.00,meteohub,2013-01-21 14:27:00,
2013-01-21 08:32:00,8.8,-3.3,30.50,NNE,12,13.0,18.0,57,0.00,,,0.00,meteohub,2013-01-21 14:32:00,
2013-01-21 08:37:00,8.8,-2.9,30.51,NNW,346,15.0,17.0,58,0.00,,,0.00,meteohub,2013-01-21 14:37:00,
2013-01-21 08:42:00,8.8,-3.3,30.51,North,5,10.0,17.0,57,0.00,,,0.00,meteohub,2013-01-21 14:42:00,
2013-01-21 08:47:00,8.8,-2.9,30.51,North,351,12.0,16.0,58,0.00,,,0.00,meteohub,2013-01-21 14:47:00,
2013-01-21 08:52:00,8.4,-4.0,30.51,North,9,11.0,18.0,56,0.00,,,0.00,meteohub,2013-01-21 14:52:00,
2013-01-21 08:57:00,8.2,-4.5,30.51,North,355,15.0,18.0,55,0.00,,,0.00,meteohub,2013-01-21 14:57:00,
2013-01-21 09:02:00,8.2,-4.5,30.52,North,349,11.0,18.0,55,0.00,,,0.00,meteohub,2013-01-21 15:02:00,
2013-01-21 09:07:00,8.2,-4.2,30.51,NNE,22,16.0,17.0,56,0.00,,,0.00,meteohub,2013-01-21 15:07:00,
2013-01-21 09:12:00,8.2,-4.5,30.52,NNW,342,15.0,20.0,55,0.00,,,0.00,meteohub,2013-01-21 15:12:00,
2013-01-21 09:17:00,8.2,-4.5,30.52,NNW,331,10.0,20.0,55,0.00,,,0.00,meteohub,2013-01-21 15:17:00,
2013-01-21 09:22:00,8.8,-3.3,30.52,NNW,330,11.0,20.0,57,0.00,,,0.00,meteohub,2013-01-21 15:22:00,
2013-01-21 09:27:00,8.8,-3.6,30.52,NNW,344,10.0,17.0,56,0.00,,,0.00,meteohub,2013-01-21 15:27:00,
2013-01-21 09:32:00,8.4,-3.3,30.52,North,355,10.0,14.0,58,0.00,,,0.00,meteohub,2013-01-21 15:32:00,
2013-01-21 09:37:00,8.4,-2.9,30.52,NW,321,12.0,14.0,59,0.00,,,0.00,meteohub,2013-01-21 15:37:00,
2013-01-21 09:42:00,8.2,-3.5,30.53,NNW,327,12.0,14.0,58,0.00,,,0.00,meteohub,2013-01-21 15:42:00,
2013-01-21 09:47:00,8.2,-3.8,30.53,North,350,10.0,15.0,57,0.00,,,0.00,meteohub,2013-01-21 15:47:00,
2013-01-21 09:52:00,8.4,-2.9,30.53,NNW,334,13.0,15.0,59,0.00,,,0.00,meteohub,2013-01-21 15:52:00,
2013-01-21 09:57:00,8.2,-4.2,30.53,North,355,11.0,16.0,56,0.00,,,0.00,meteohub,2013-01-21 15:57:00,
2013-01-21 10:02:00,8.4,-3.6,30.53,North,355,13.0,16.0,57,0.00,,,0.00,meteohub,2013-01-21 16:02:00,
2013-01-21 10:07:00,8.8,-2.6,30.53,North,0,16.0,16.0,59,0.00,,,0.00,meteohub,2013-01-21 16:07:00,
2013-01-21 10:12:00,8.2,-4.2,30.53,NNW,333,12.0,17.0,56,0.00,,,0.00,meteohub,2013-01-21 16:12:00,
2013-01-21 10:17:00,8.6,-3.1,30.53,NW,310,11.0,17.0,58,0.00,,,0.00,meteohub,2013-01-21 16:17:00,
2013-01-21 10:22:00,8.2,-4.2,30.53,NNW,339,14.0,17.0,56,0.00,,,0.00,meteohub,2013-01-21 16:22:00,
2013-01-21 10:27:00,8.2,-3.8,30.53,North,355,14.0,17.0,57,0.00,,,0.00,meteohub,2013-01-21 16:27:00,
2013-01-21 10:32:00,8.4,-3.6,30.53,NNW,329,12.0,17.0,57,0.00,,,0.00,meteohub,2013-01-21 16:32:00,
2013-01-21 10:37:00,8.4,-3.6,30.54,NNW,333,13.0,16.0,57,0.00,,,0.00,meteohub,2013-01-21 16:37:00,
2013-01-21 10:42:00,8.8,-3.3,30.54,NW,323,13.0,16.0,57,0.00,,,0.00,meteohub,2013-01-21 16:42:00,
2013-01-21 10:47:00,8.4,-4.0,30.53,NNW,346,10.0,17.0,56,0.00,,,0.00,meteohub,2013-01-21 16:47:00,
2013-01-21 10:52:00,8.6,-3.8,30.53,NW,317,10.0,17.0,56,0.00,,,0.00,meteohub,2013-01-21 16:52:00,
2013-01-21 10:57:00,8.6,-3.5,30.53,North,355,11.0,17.0,57,0.00,,,0.00,meteohub,2013-01-21 16:57:00,
2013-01-21 11:02:00,9.0,-3.1,30.53,NNW,334,13.0,15.0,57,0.00,,,0.00,meteohub,2013-01-21 17:02:00,
2013-01-21 11:07:00,8.8,-4.0,30.53,NNW,336,12.0,15.0,55,0.00,,,0.00,meteohub,2013-01-21 17:07:00,
2013-01-21 11:12:00,8.8,-4.0,30.53,NW,308,14.0,18.0,55,0.00,,,0.00,meteohub,2013-01-21 17:12:00,
2013-01-21 11:17:00,8.8,-4.0,30.53,NW,325,15.0,18.0,55,0.00,,,0.00,meteohub,2013-01-21 17:17:00,
2013-01-21 11:22:00,9.0,-3.5,30.53,NW,309,17.0,18.0,56,0.00,,,0.00,meteohub,2013-01-21 17:22:00,
2013-01-21 11:27:00,9.1,-2.9,30.53,NW,308,11.0,19.0,57,0.00,,,0.00,meteohub,2013-01-21 17:27:00,
2013-01-21 11:32:00,9.0,-4.4,30.53,NW,322,16.0,19.0,54,0.00,,,0.00,meteohub,2013-01-21 17:32:00,
2013-01-21 11:37:00,8.6,-5.1,30.53,NNW,344,16.0,19.0,53,0.00,,,0.00,meteohub,2013-01-21 17:37:00,
2013-01-21 11:42:00,8.8,-4.9,30.53,WNW,291,11.0,18.0,53,0.00,,,0.00,meteohub,2013-01-21 17:42:00,
2013-01-21 11:47:00,9.3,-2.9,30.53,WNW,302,10.0,18.0,57,0.00,,,0.00,meteohub,2013-01-21 17:47:00,
2013-01-21 11:52:00,9.0,-4.4,30.52,NNW,347,11.0,18.0,54,0.00,,,0.00,meteohub,2013-01-21 17:52:00,
2013-01-21 11:57:00,8.8,-4.9,30.52,NNW,342,16.0,16.0,53,0.00,,,0.00,meteohub,2013-01-21 17:57:00,
2013-01-21 12:02:00,9.0,-4.7,30.51,NNW,336,17.0,19.0,53,0.00,,,0.00,meteohub,2013-01-21 18:02:00,
2013-01-21 12:07:00,9.0,-4.7,30.52,NW,322,15.0,20.0,53,0.00,,,0.00,meteohub,2013-01-21 18:07:00,
2013-01-21 12:12:00,9.3,-4.0,30.52,NW,305,14.0,20.0,54,0.00,,,0.00,meteohub,2013-01-21 18:12:00,
2013-01-21 12:17:00,9.1,-4.5,30.51,West,275,12.0,18.0,53,0.00,,,0.00,meteohub,2013-01-21 18:17:00,
2013-01-21 12:22:00,9.1,-3.8,30.51,NW,325,11.0,18.0,55,0.00,,,0.00,meteohub,2013-01-21 18:22:00,
2013-01-21 12:27:00,9.1,-3.5,30.51,NW,317,13.0,18.0,56,0.00,,,0.00,meteohub,2013-01-21 18:27:00,
2013-01-21 12:32:00,9.3,-3.3,30.51,NW,309,11.0,18.0,56,0.00,,,0.00,meteohub,2013-01-21 18:32:00,
2013-01-21 12:37:00,9.3,-3.6,30.51,NW,317,12.0,16.0,55,0.00,,,0.00,meteohub,2013-01-21 18:37:00,
2013-01-21 12:42:00,9.3,-3.6,30.50,NW,316,12.0,16.0,55,0.00,,,0.00,meteohub,2013-01-21 18:42:00,
2013-01-21 12:47:00,9.9,-2.7,30.50,NW,309,12.0,15.0,56,0.00,,,0.00,meteohub,2013-01-21 18:47:00,
2013-01-21 12:52:00,10.0,-2.6,30.50,WNW,299,13.0,16.0,56,0.00,,,0.00,meteohub,2013-01-21 18:52:00,
2013-01-21 12:57:00,9.7,-3.6,30.49,WNW,295,14.0,17.0,54,0.00,,,0.00,meteohub,2013-01-21 18:57:00,
2013-01-21 13:02:00,9.9,-3.5,30.49,NW,304,14.0,17.0,54,0.00,,,0.00,meteohub,2013-01-21 19:02:00,
2013-01-21 13:07:00,9.9,-3.8,30.49,NW,309,13.0,17.0,53,0.00,,,0.00,meteohub,2013-01-21 19:07:00,
2013-01-21 13:12:00,9.9,-3.8,30.49,NW,312,13.0,17.0,53,0.00,,,0.00,meteohub,2013-01-21 19:12:00,
2013-01-21 13:17:00,10.2,-3.1,30.49,NW,310,14.0,17.0,54,0.00,,,0.00,meteohub,2013-01-21 19:17:00,
2013-01-21 13:22:00,10.4,-2.9,30.48,WNW,301,14.0,17.0,54,0.00,,,0.00,meteohub,2013-01-21 19:22:00,
2013-01-21 13:27:00,10.4,-3.3,30.48,WNW,300,12.0,17.0,53,0.00,,,0.00,meteohub,2013-01-21 19:27:00,
2013-01-21 13:32:00,10.6,-3.1,30.48,WNW,290,9.0,17.0,53,0.00,,,0.00,meteohub,2013-01-21 19:32:00,
2013-01-21 13:37:00,10.6,-3.1,30.48,WNW,287,10.0,17.0,53,0.00,,,0.00,meteohub,2013-01-21 19:37:00,
2013-01-21 13:42:00,10.6,-4.0,30.48,WNW,290,12.0,16.0,51,0.00,,,0.00,meteohub,2013-01-21 19:42:00,
2013-01-21 13:47:00,10.8,-3.5,30.48,West,277,9.0,15.0,52,0.00,,,0.00,meteohub,2013-01-21 19:47:00,
2013-01-21 13:52:00,10.8,-3.8,30.48,NNW,335,9.0,15.0,51,0.00,,,0.00,meteohub,2013-01-21 19:52:00,
2013-01-21 13:57:00,10.8,-3.8,30.47,WNW,296,9.0,15.0,51,0.00,,,0.00,meteohub,2013-01-21 19:57:00,
2013-01-21 14:02:00,10.8,-4.2,30.48,NW,311,8.0,15.0,50,0.00,,,0.00,meteohub,2013-01-21 20:02:00,
2013-01-21 14:07:00,10.9,-3.6,30.48,WNW,292,14.0,15.0,51,0.00,,,0.00,meteohub,2013-01-21 20:07:00,
2013-01-21 14:12:00,10.9,-4.0,30.48,NW,309,10.0,15.0,50,0.00,,,0.00,meteohub,2013-01-21 20:12:00,
2013-01-21 14:17:00,11.3,-3.6,30.47,NW,318,11.0,16.0,50,0.00,,,0.00,meteohub,2013-01-21 20:17:00,
2013-01-21 14:22:00,11.1,-4.4,30.48,NNW,329,14.0,16.0,49,0.00,,,0.00,meteohub,2013-01-21 20:22:00,
2013-01-21 14:27:00,11.1,-4.4,30.47,NNW,334,13.0,16.0,49,0.00,,,0.00,meteohub,2013-01-21 20:27:00,
2013-01-21 14:32:00,11.5,-4.0,30.48,NW,314,13.0,16.0,49,0.00,,,0.00,meteohub,2013-01-21 20:32:00,
2013-01-21 14:37:00,11.5,-4.4,30.47,NW,307,11.0,19.0,48,0.00,,,0.00,meteohub,2013-01-21 20:37:00,
2013-01-21 14:42:00,11.7,-3.8,30.47,North,349,10.0,19.0,49,0.00,,,0.00,meteohub,2013-01-21 20:42:00,
2013-01-21 14:47:00,11.8,-3.3,30.47,NW,306,10.0,19.0,50,0.00,,,0.00,meteohub,2013-01-21 20:47:00,
2013-01-21 14:52:00,11.8,-3.3,30.47,NNW,331,10.0,16.0,50,0.00,,,0.00,meteohub,2013-01-21 20:52:00,
2013-01-21 14:57:00,11.8,-3.3,30.47,NNW,338,13.0,16.0,50,0.00,,,0.00,meteohub,2013-01-21 20:57:00,
2013-01-21 15:02:00,11.8,-3.3,30.47,NNW,343,10.0,15.0,50,0.00,,,0.00,meteohub,2013-01-21 21:02:00,
2013-01-21 15:07:00,11.7,-3.5,30.47,WNW,294,7.0,14.0,50,0.00,,,0.00,meteohub,2013-01-21 21:07:00,
2013-01-21 15:12:00,11.8,-2.7,30.46,NNW,344,14.0,14.0,51,0.00,,,0.00,meteohub,2013-01-21 21:12:00,
2013-01-21 15:17:00,11.7,-2.9,30.47,North,355,9.0,14.0,51,0.00,,,0.00,meteohub,2013-01-21 21:17:00,
2013-01-21 15:22:00,11.7,-3.5,30.48,North,5,6.0,14.0,50,0.00,,,0.00,meteohub,2013-01-21 21:22:00,
2013-01-21 15:27:00,11.7,-2.9,30.48,NNW,346,8.0,14.0,51,0.00,,,0.00,meteohub,2013-01-21 21:27:00,
2013-01-21 15:32:00,11.8,-2.4,30.47,NNW,336,7.0,14.0,52,0.00,,,0.00,meteohub,2013-01-21 21:32:00,
2013-01-21 15:37:00,11.8,-2.4,30.47,NNW,344,8.0,12.0,52,0.00,,,0.00,meteohub,2013-01-21 21:37:00,
2013-01-21 15:43:00,11.8,-2.4,30.47,NW,322,8.0,12.0,52,0.00,,,0.00,meteohub,2013-01-21 21:43:00,
2013-01-21 15:48:00,12.0,-2.2,30.47,NNW,347,11.0,11.0,52,0.00,,,0.00,meteohub,2013-01-21 21:48:00,
2013-01-21 15:53:00,12.0,-2.2,30.47,NW,306,7.0,12.0,52,0.00,,,0.00,meteohub,2013-01-21 21:53:00,
2013-01-21 15:58:00,12.2,-2.0,30.47,NNW,337,9.0,12.0,52,0.00,,,0.00,meteohub,2013-01-21 21:58:00,
2013-01-21 16:03:00,12.2,-1.7,30.47,NW,308,8.0,12.0,53,0.00,,,0.00,meteohub,2013-01-21 22:03:00,
2013-01-21 16:08:00,12.4,-1.1,30.46,NW,324,10.0,12.0,54,0.00,,,0.00,meteohub,2013-01-21 22:08:00,
2013-01-21 16:13:00,12.4,-1.8,30.47,NNW,338,8.0,12.0,52,0.00,,,0.00,meteohub,2013-01-21 22:13:00,
2013-01-21 16:18:00,12.4,-1.5,30.47,WNW,295,7.0,12.0,53,0.00,,,0.00,meteohub,2013-01-21 22:18:00,
2013-01-21 16:23:00,12.4,-1.5,30.46,NNW,328,8.0,12.0,53,0.00,,,0.00,meteohub,2013-01-21 22:23:00,
2013-01-21 16:28:00,12.6,-0.9,30.46,NW,317,8.0,11.0,54,0.00,,,0.00,meteohub,2013-01-21 22:28:00,
2013-01-21 16:34:00,12.6,-0.9,30.46,NW,319,9.0,11.0,54,0.00,,,0.00,meteohub,2013-01-21 22:34:00,
2013-01-21 16:39:00,12.4,-1.5,30.46,NNW,336,6.0,11.0,53,0.00,,,0.00,meteohub,2013-01-21 22:39:00,
2013-01-21 16:44:00,12.6,-0.9,30.46,NW,306,9.0,11.0,54,0.00,,,0.00,meteohub,2013-01-21 22:44:00,
2013-01-21 16:49:00,12.6,-0.9,30.46,North,355,8.0,12.0,54,0.00,,,0.00,meteohub,2013-01-21 22:49:00,
2013-01-21 16:54:00,12.6,-0.6,30.46,NW,326,9.0,12.0,55,0.00,,,0.00,meteohub,2013-01-21 22:54:00,
2013-01-21 16:59:00,12.4,-1.1,30.46,NNW,337,8.0,12.0,54,0.00,,,0.00,meteohub,2013-01-21 22:59:00,
2013-01-21 17:04:00,12.6,-0.6,30.46,North,355,7.0,12.0,55,0.00,,,0.00,meteohub,2013-01-21 23:04:00,
2013-01-21 17:09:00,12.6,-0.9,30.45,NNW,331,9.0,12.0,54,0.00,,,0.00,meteohub,2013-01-21 23:09:00,
2013-01-21 17:14:00,12.4,-1.1,30.45,North,350,7.0,12.0,54,0.00,,,0.00,meteohub,2013-01-21 23:14:00,
2013-01-21 17:19:00,12.4,-1.1,30.45,NNW,342,7.0,12.0,54,0.00,,,0.00,meteohub,2013-01-21 23:19:00,
2013-01-21 17:24:00,12.6,-0.6,30.45,North,350,6.0,12.0,55,0.00,,,0.00,meteohub,2013-01-21 23:24:00,
2013-01-21 17:30:00,12.6,-0.6,30.45,NNW,348,9.0,10.0,55,0.00,,,0.00,meteohub,2013-01-21 23:30:00,
2013-01-21 17:35:00,12.6,-0.6,30.45,NNW,342,7.0,10.0,55,0.00,,,0.00,meteohub,2013-01-21 23:35:00,
2013-01-21 17:40:00,12.6,-0.2,30.45,North,355,8.0,9.0,56,0.00,,,0.00,meteohub,2013-01-21 23:40:00,
2013-01-21 17:45:00,12.4,-0.8,30.45,North,11,7.0,9.0,55,0.00,,,0.00,meteohub,2013-01-21 23:45:00,
2013-01-21 17:50:00,12.4,-0.8,30.45,North,349,6.0,9.0,55,0.00,,,0.00,meteohub,2013-01-21 23:50:00,
2013-01-21 17:55:00,12.4,-0.8,30.45,NW,320,5.0,9.0,55,0.00,,,0.00,meteohub,2013-01-21 23:55:00,
2013-01-21 18:00:00,12.2,-0.9,30.45,North,5,5.0,8.0,55,0.00,,,0.00,meteohub,2013-01-22 00:00:00,
2013-01-21 18:05:00,12.4,-0.4,30.45,North,5,3.0,-999.0,56,0.00,,,0.00,meteohub,2013-01-22 00:05:00,
2013-01-21 18:10:00,12.4,-0.4,30.45,NNE,15,4.0,6.0,56,0.00,,,0.00,meteohub,2013-01-22 00:10:00,
2013-01-21 18:15:00,12.6,0.1,30.45,North,0,8.0,8.0,57,0.00,,,0.00,meteohub,2013-01-22 00:15:00,
2013-01-21 18:20:00,12.6,-0.2,30.45,North,355,7.0,8.0,56,0.00,,,0.00,meteohub,2013-01-22 00:20:00,
2013-01-21 18:25:00,12.6,-0.2,30.46,North,5,7.0,8.0,56,0.00,,,0.00,meteohub,2013-01-22 00:25:00,
2013-01-21 18:30:00,12.6,-0.2,30.45,North,355,5.0,8.0,56,0.00,,,0.00,meteohub,2013-01-22 00:30:00,
2013-01-21 18:35:00,12.6,-0.6,30.46,NNW,338,5.0,8.0,55,0.00,,,0.00,meteohub,2013-01-22 00:35:00,
2013-01-21 18:40:00,12.6,-0.6,30.45,NW,321,6.0,8.0,55,0.00,,,0.00,meteohub,2013-01-22 00:40:00,
2013-01-21 18:46:00,12.6,-0.6,30.45,NNW,342,5.0,7.0,55,0.00,,,0.00,meteohub,2013-01-22 00:46:00,
2013-01-21 18:51:00,12.6,-0.6,30.45,North,355,4.0,7.0,55,0.00,,,0.00,meteohub,2013-01-22 00:51:00,
2013-01-21 18:56:00,12.6,-0.2,30.45,NNW,348,6.0,7.0,56,0.00,,,0.00,meteohub,2013-01-22 00:56:00,
2013-01-21 19:01:00,12.6,-0.2,30.45,NW,323,4.0,7.0,56,0.00,,,0.00,meteohub,2013-01-22 01:01:00,
2013-01-21 19:06:00,12.6,-0.2,30.46,NNW,348,4.0,7.0,56,0.00,,,0.00,meteohub,2013-01-22 01:06:00,
2013-01-21 19:11:00,12.6,-0.6,30.45,North,355,5.0,7.0,55,0.00,,,0.00,meteohub,2013-01-22 01:11:00,
2013-01-21 19:16:00,12.7,-0.4,30.45,NW,317,3.0,5.0,55,0.00,,,0.00,meteohub,2013-01-22 01:16:00,
2013-01-21 19:21:00,12.7,-0.4,30.45,NW,304,4.0,7.0,55,0.00,,,0.00,meteohub,2013-01-22 01:21:00,
2013-01-21 19:26:00,12.7,-0.4,30.45,NNW,337,5.0,7.0,55,0.00,,,0.00,meteohub,2013-01-22 01:26:00,
2013-01-21 19:31:00,12.7,0.0,30.45,NW,326,6.0,7.0,56,0.00,,,0.00,meteohub,2013-01-22 01:31:00,
2013-01-21 19:36:00,12.7,0.0,30.45,North,355,6.0,6.0,56,0.00,,,0.00,meteohub,2013-01-22 01:36:00,
2013-01-21 19:41:00,12.7,-0.4,30.45,North,5,6.0,6.0,55,0.00,,,0.00,meteohub,2013-01-22 01:41:00,
2013-01-21 19:46:00,12.7,0.0,30.45,NNE,24,2.0,7.0,56,0.00,,,0.00,meteohub,2013-01-22 01:46:00,
2013-01-21 19:51:00,12.7,0.0,30.45,North,11,2.0,7.0,56,0.00,,,0.00,meteohub,2013-01-22 01:51:00,
2013-01-21 19:56:00,12.9,0.5,30.45,North,355,3.0,6.0,57,0.00,,,0.00,meteohub,2013-01-22 01:56:00,
2013-01-21 20:02:00,12.9,0.5,30.45,North,5,6.0,6.0,57,0.00,,,0.00,meteohub,2013-01-22 02:02:00,
2013-01-21 20:07:00,12.9,0.5,30.45,NNE,13,5.0,7.0,57,0.00,,,0.00,meteohub,2013-01-22 02:07:00,
2013-01-21 20:12:00,12.9,0.5,30.45,NNE,22,5.0,7.0,57,0.00,,,0.00,meteohub,2013-01-22 02:12:00,
2013-01-21 20:17:00,12.9,0.5,30.45,NNE,28,4.0,7.0,57,0.00,,,0.00,meteohub,2013-01-22 02:17:00,
2013-01-21 20:22:00,12.9,0.5,30.45,NE,34,4.0,7.0,57,0.00,,,0.00,meteohub,2013-01-22 02:22:00,
2013-01-21 20:27:00,12.9,0.5,30.45,NNE,28,3.0,7.0,57,0.00,,,0.00,meteohub,2013-01-22 02:27:00,
2013-01-21 20:32:00,12.9,0.5,30.45,NNE,25,4.0,6.0,57,0.00,,,0.00,meteohub,2013-01-22 02:32:00,
2013-01-21 20:37:00,12.9,0.5,30.45,NNE,21,3.0,6.0,57,0.00,,,0.00,meteohub,2013-01-22 02:37:00,
2013-01-21 20:42:00,13.1,1.0,30.45,NNE,24,3.0,8.0,58,0.00,,,0.00,meteohub,2013-01-22 02:42:00,
2013-01-21 20:47:00,13.1,0.7,30.45,NNE,17,5.0,8.0,57,0.00,,,0.00,meteohub,2013-01-22 02:47:00,
2013-01-21 20:52:00,13.3,1.2,30.45,NE,36,4.0,8.0,58,0.00,,,0.00,meteohub,2013-01-22 02:52:00,
2013-01-21 20:57:00,13.3,1.2,30.45,NNE,29,5.0,8.0,58,0.00,,,0.00,meteohub,2013-01-22 02:57:00,
2013-01-21 21:02:00,13.1,0.7,30.45,NNE,30,3.0,8.0,57,0.00,,,0.00,meteohub,2013-01-22 03:02:00,
2013-01-21 21:07:00,13.1,0.7,30.45,NNE,31,3.0,8.0,57,0.00,,,0.00,meteohub,2013-01-22 03:07:00,
2013-01-21 21:12:00,13.1,0.7,30.45,NE,46,4.0,8.0,57,0.00,,,0.00,meteohub,2013-01-22 03:12:00,
2013-01-21 21:17:00,12.9,0.5,30.45,NNE,32,3.0,6.0,57,0.00,,,0.00,meteohub,2013-01-22 03:17:00,
2013-01-21 21:22:00,12.9,0.5,30.45,NE,40,3.0,6.0,57,0.00,,,0.00,meteohub,2013-01-22 03:22:00,
2013-01-21 21:27:00,12.9,0.5,30.44,NE,39,2.0,6.0,57,0.00,,,0.00,meteohub,2013-01-22 03:27:00,
2013-01-21 21:32:00,12.9,0.5,30.44,NNE,31,0.0,5.0,57,0.00,,,0.00,meteohub,2013-01-22 03:32:00,
2013-01-21 21:37:00,12.9,0.9,30.45,ENE,61,3.0,5.0,58,0.00,,,0.00,meteohub,2013-01-22 03:37:00,
2013-01-21 21:42:00,12.9,0.9,30.45,ENE,61,3.0,5.0,58,0.00,,,0.00,meteohub,2013-01-22 03:42:00,
2013-01-21 21:47:00,12.9,0.9,30.45,ENE,64,3.0,4.0,58,0.00,,,0.00,meteohub,2013-01-22 03:47:00,
2013-01-21 21:52:00,12.7,0.7,30.45,ENE,65,3.0,4.0,58,0.00,,,0.00,meteohub,2013-01-22 03:52:00,
2013-01-21 21:57:00,12.7,0.7,30.45,ENE,61,2.0,4.0,58,0.00,,,0.00,meteohub,2013-01-22 03:57:00,
2013-01-21 22:02:00,12.7,0.7,30.45,East,82,2.0,4.0,58,0.00,,,0.00,meteohub,2013-01-22 04:02:00,
2013-01-21 22:07:00,12.7,0.3,30.44,East,84,2.0,4.0,57,0.00,,,0.00,meteohub,2013-01-22 04:07:00,
2013-01-21 22:12:00,12.7,0.7,30.44,ENE,63,2.0,4.0,58,0.00,,,0.00,meteohub,2013-01-22 04:12:00,
2013-01-21 22:17:00,12.7,0.3,30.45,ENE,64,3.0,4.0,57,0.00,,,0.00,meteohub,2013-01-22 04:17:00,
2013-01-21 22:22:00,12.7,0.7,30.45,ENE,57,3.0,4.0,58,0.00,,,0.00,meteohub,2013-01-22 04:22:00,
2013-01-21 22:27:00,12.7,0.7,30.45,ENE,57,2.0,4.0,58,0.00,,,0.00,meteohub,2013-01-22 04:27:00,
2013-01-21 22:32:00,12.7,0.7,30.45,NE,38,3.0,4.0,58,0.00,,,0.00,meteohub,2013-01-22 04:32:00,
2013-01-21 22:37:00,12.7,0.7,30.45,East,98,4.0,5.0,58,0.00,,,0.00,meteohub,2013-01-22 04:37:00,
2013-01-21 22:42:00,12.7,0.7,30.45,East,81,2.0,5.0,58,0.00,,,0.00,meteohub,2013-01-22 04:42:00,
2013-01-21 22:47:00,12.7,0.7,30.45,East,96,2.0,5.0,58,0.00,,,0.00,meteohub,2013-01-22 04:47:00,
2013-01-21 22:52:00,12.7,0.3,30.45,ENE,71,1.0,5.0,57,0.00,,,0.00,meteohub,2013-01-22 04:52:00,
2013-01-21 22:57:00,12.7,0.7,30.46,ENE,67,3.0,5.0,58,0.00,,,0.00,meteohub,2013-01-22 04:57:00,
2013-01-21 23:00:00,12.7,0.7,30.45,ESE,117,4.0,5.0,58,0.00,,,0.00,meteohub,2013-01-22 05:00:00,
2013-01-21 23:01:00,12.7,0.7,30.45,ESE,110,2.0,4.0,58,0.00,,,0.00,meteohub,2013-01-22 05:01:00,
2013-01-21 23:06:00,12.7,0.3,30.45,ESE,119,5.0,6.0,57,0.00,,,0.00,meteohub,2013-01-22 05:06:00,
2013-01-21 23:11:00,12.7,0.3,30.45,ESE,119,6.0,6.0,57,0.00,,,0.00,meteohub,2013-01-22 05:11:00,
2013-01-21 23:17:00,12.7,0.3,30.44,East,96,4.0,6.0,57,0.00,,,0.00,meteohub,2013-01-22 05:17:00,
2013-01-21 23:22:00,12.7,0.7,30.44,East,100,4.0,6.0,58,0.00,,,0.00,meteohub,2013-01-22 05:22:00,
2013-01-21 23:27:00,12.7,0.7,30.45,ESE,102,2.0,6.0,58,0.00,,,0.00,meteohub,2013-01-22 05:27:00,
2013-01-21 23:32:00,12.7,0.3,30.44,ESE,108,4.0,5.0,57,0.00,,,0.00,meteohub,2013-01-22 05:32:00,
2013-01-21 23:37:00,12.7,0.7,30.45,East,87,1.0,5.0,58,0.00,,,0.00,meteohub,2013-01-22 05:37:00,
2013-01-21 23:42:00,12.9,0.9,30.44,ESE,113,2.0,5.0,58,0.00,,,0.00,meteohub,2013-01-22 05:42:00,
2013-01-21 23:47:00,12.7,0.7,30.44,ESE,113,2.0,5.0,58,0.00,,,0.00,meteohub,2013-01-22 05:47:00,
2013-01-21 23:52:00,12.9,0.9,30.44,SE,142,5.0,6.0,58,0.00,,,0.00,meteohub,2013-01-22 05:52:00,
2013-01-21 23:57:00,12.9,0.9,30.44,SE,131,2.0,7.0,58,0.00,,,0.00,meteohub,2013-01-22 05:57:00,